createdAt,value
2023-11-30T00:00:36.964Z,95579.38
2023-11-30T00:03:05.526Z,95583.13
2023-11-30T00:05:33.278Z,95580.25
2023-11-30T00:08:00.233Z,95578.47
2023-11-30T00:10:28.500Z,95584.41
2023-11-30T00:12:56.178Z,95576.97
2023-11-30T00:15:23.156Z,95575.94
2023-11-30T00:17:50.779Z,95570.06
2023-11-30T00:20:18.350Z,95565.09
2023-11-30T00:22:45.453Z,95567.34
2023-11-30T00:25:12.441Z,95553.63
2023-11-30T00:27:41.303Z,95553.28
2023-11-30T00:30:10.504Z,95557.06
2023-11-30T00:32:37.974Z,95550.25
2023-11-30T00:35:05.982Z,95545.81
2023-11-30T00:37:33.588Z,95552.09
2023-11-30T00:40:00.592Z,95556.59
2023-11-30T00:42:31.092Z,95545.50
2023-11-30T00:44:59.694Z,95546.56
2023-11-30T00:47:27.320Z,95541.00
2023-11-30T00:49:55.055Z,95549.84
2023-11-30T00:52:22.223Z,95550.41
2023-11-30T00:54:49.407Z,95547.75
2023-11-30T00:57:16.672Z,95549.34
2023-11-30T00:59:44.277Z,95549.34
2023-11-30T01:02:14.620Z,95545.47
2023-11-30T01:04:42.032Z,95548.63
2023-11-30T01:07:08.902Z,95550.41
2023-11-30T01:09:39.012Z,95537.53
2023-11-30T01:12:06.672Z,95532.56
2023-11-30T01:14:33.587Z,95524.34
2023-11-30T01:17:01.666Z,95514.56
2023-11-30T01:19:31.980Z,95515.38
2023-11-30T01:21:59.096Z,95506.16
2023-11-30T01:24:26.071Z,95500.56
2023-11-30T01:26:53.058Z,95503.47
2023-11-30T01:29:20.005Z,95505.50
2023-11-30T01:31:47.527Z,95501.50
2023-11-30T01:34:14.447Z,95496.69
2023-11-30T01:36:42.763Z,95502.78
2023-11-30T01:39:09.820Z,95505.69
2023-11-30T01:41:37.429Z,95500.38
2023-11-30T01:44:05.157Z,95499.34
2023-11-30T01:46:33.028Z,95508.81
2023-11-30T01:49:00.805Z,95500.88
2023-11-30T01:51:29.039Z,95501.91
2023-11-30T01:53:58.186Z,95500.78
2023-11-30T01:56:25.917Z,95492.78
2023-11-30T01:58:53.481Z,95478.41
2023-11-30T02:01:21.232Z,95469.13
2023-11-30T02:03:48.960Z,95460.19
2023-11-30T02:06:16.673Z,95438.03
2023-11-30T02:08:44.340Z,95449.78
2023-11-30T02:11:13.740Z,95441.19
2023-11-30T02:13:41.517Z,95442.97
2023-11-30T02:16:10.331Z,95434.47
2023-11-30T02:18:37.916Z,95428.63
2023-11-30T02:21:06.398Z,95434.41
2023-11-30T02:23:35.945Z,95432.81
2023-11-30T02:26:03.561Z,95432.97
2023-11-30T02:28:31.165Z,95434.19
2023-11-30T02:30:58.783Z,95429.94
2023-11-30T02:33:26.587Z,95427.03
2023-11-30T02:35:54.739Z,95415.16
2023-11-30T02:38:22.233Z,95409.63
2023-11-30T02:40:51.727Z,95411.97
2023-11-30T02:43:19.904Z,95405.00
2023-11-30T02:45:46.871Z,95411.09
2023-11-30T02:48:15.255Z,95409.06
2023-11-30T02:50:43.185Z,95401.06
2023-11-30T02:53:10.850Z,95390.19
2023-11-30T02:55:38.589Z,95380.09
2023-11-30T02:58:07.893Z,95371.91
2023-11-30T03:00:36.996Z,95361.31
2023-11-30T03:03:04.602Z,95352.19
2023-11-30T03:05:32.753Z,95338.25
2023-11-30T03:08:00.280Z,95339.91
2023-11-30T03:10:27.899Z,95342.72
2023-11-30T03:12:55.503Z,95342.41
2023-11-30T03:15:25.192Z,95349.75
2023-11-30T03:17:52.911Z,95347.03
2023-11-30T03:20:21.875Z,95332.69
2023-11-30T03:22:49.551Z,95318.91
2023-11-30T03:25:17.321Z,95318.13
2023-11-30T03:27:45.255Z,95313.00
2023-11-30T03:30:13.409Z,95318.22
2023-11-30T03:32:42.804Z,95335.28
2023-11-30T03:35:10.357Z,95331.59
2023-11-30T03:37:38.060Z,95323.56
2023-11-30T03:40:06.165Z,95313.97
2023-11-30T03:42:34.044Z,95316.44
2023-11-30T03:45:02.373Z,95324.63
2023-11-30T03:47:30.188Z,95310.28
2023-11-30T03:49:59.404Z,95304.84
2023-11-30T03:52:27.198Z,95297.53
2023-11-30T03:54:54.736Z,95303.47
2023-11-30T03:57:22.550Z,95302.00
2023-11-30T03:59:50.274Z,95303.53
2023-11-30T04:02:18.070Z,95292.84
2023-11-30T04:04:45.798Z,95289.41
2023-11-30T04:07:15.382Z,95286.75
2023-11-30T04:09:42.972Z,95288.38
2023-11-30T04:12:10.740Z,95283.41
2023-11-30T04:14:38.427Z,95277.63
2023-11-30T04:17:06.581Z,95276.97
2023-11-30T04:19:34.492Z,95272.03
2023-11-30T04:22:02.235Z,95274.50
2023-11-30T04:24:31.346Z,95271.78
2023-11-30T04:26:59.019Z,95259.50
2023-11-30T04:29:26.536Z,95260.88
2023-11-30T04:31:55.046Z,95258.94
2023-11-30T04:34:22.912Z,95247.03
2023-11-30T04:36:50.531Z,95261.78
2023-11-30T04:39:18.204Z,95250.19
2023-11-30T04:41:47.048Z,95247.78
2023-11-30T04:44:14.824Z,95242.50
2023-11-30T04:46:42.737Z,95238.19
2023-11-30T04:49:11.701Z,95235.22
2023-11-30T04:51:39.473Z,95231.63
2023-11-30T04:54:08.197Z,95227.69
2023-11-30T04:56:36.028Z,95226.31
2023-11-30T04:59:05.284Z,95227.50
2023-11-30T05:01:34.168Z,95219.25
2023-11-30T05:04:02.812Z,95221.97
2023-11-30T05:06:31.639Z,95218.28
2023-11-30T05:08:59.565Z,95217.09
2023-11-30T05:11:27.210Z,95217.03
2023-11-30T05:13:54.994Z,95212.72
2023-11-30T05:16:24.054Z,95209.53
2023-11-30T05:18:51.941Z,95208.97
2023-11-30T05:21:19.649Z,95209.75
2023-11-30T05:23:47.626Z,95204.53
2023-11-30T05:26:15.181Z,95202.97
2023-11-30T05:28:43.235Z,95201.59
2023-11-30T05:31:11.399Z,95194.41
2023-11-30T05:33:40.982Z,95194.38
2023-11-30T05:36:09.810Z,95190.63
2023-11-30T05:38:37.860Z,95192.31
2023-11-30T05:41:05.556Z,95198.09
2023-11-30T05:43:32.413Z,95191.78
2023-11-30T05:45:59.381Z,95184.84
2023-11-30T05:48:26.542Z,95177.72
2023-11-30T05:50:55.586Z,95172.69
2023-11-30T05:53:23.584Z,95173.16
2023-11-30T05:55:51.499Z,95175.25
2023-11-30T05:58:19.083Z,95170.69
2023-11-30T06:00:47.963Z,95174.75
2023-11-30T06:03:15.739Z,95163.50
2023-11-30T06:05:43.662Z,95168.44
2023-11-30T06:08:13.544Z,95162.66
2023-11-30T06:10:41.182Z,95161.34
2023-11-30T06:13:08.843Z,95160.13
2023-11-30T06:15:36.704Z,95164.19
2023-11-30T06:18:04.612Z,95150.75
2023-11-30T06:20:32.752Z,95163.56
2023-11-30T06:23:01.086Z,95148.09
2023-11-30T06:25:30.450Z,95147.47
2023-11-30T06:27:58.463Z,95162.75
2023-11-30T06:30:26.169Z,95152.03
2023-11-30T06:32:53.785Z,95163.31
2023-11-30T06:35:21.400Z,95158.09
2023-11-30T06:37:48.991Z,95159.56
2023-11-30T06:40:16.892Z,95166.53
2023-11-30T06:42:46.060Z,95165.09
2023-11-30T06:45:14.130Z,95167.56
2023-11-30T06:47:41.288Z,95160.94
2023-11-30T06:50:10.610Z,95160.94
2023-11-30T06:52:38.551Z,95156.84
2023-11-30T06:55:06.838Z,95168.28
2023-11-30T06:57:37.075Z,95174.53
2023-11-30T07:00:08.330Z,95170.94
2023-11-30T07:02:36.351Z,95173.22
2023-11-30T07:05:04.533Z,95164.69
2023-11-30T07:07:36.485Z,95171.56
2023-11-30T07:10:05.779Z,95172.63
2023-11-30T07:12:33.482Z,95178.06
2023-11-30T07:15:01.407Z,95163.06
2023-11-30T07:17:30.691Z,95169.19
2023-11-30T07:19:58.674Z,95168.59
2023-11-30T07:22:26.285Z,95152.31
2023-11-30T07:24:54.619Z,95152.97
2023-11-30T07:27:22.309Z,95162.81
2023-11-30T07:29:50.153Z,95168.78
2023-11-30T07:32:17.678Z,95171.81
2023-11-30T07:34:46.738Z,95167.50
2023-11-30T07:37:16.639Z,95168.03
2023-11-30T07:39:43.914Z,95179.47
2023-11-30T07:42:11.997Z,95182.72
2023-11-30T07:44:39.957Z,95178.28
2023-11-30T07:47:07.921Z,95177.38
2023-11-30T07:49:35.665Z,95192.69
2023-11-30T07:52:05.141Z,95198.09
2023-11-30T07:54:33.074Z,95197.53
2023-11-30T07:57:00.746Z,95192.97
2023-11-30T07:59:28.636Z,95206.91
2023-11-30T08:01:56.201Z,95207.38
2023-11-30T08:04:24.178Z,95213.66
2023-11-30T08:06:51.488Z,95205.84
2023-11-30T08:09:21.984Z,95209.72
2023-11-30T08:11:55.785Z,95202.25
2023-11-30T08:14:23.780Z,95201.09
2023-11-30T08:16:51.165Z,95207.28
2023-11-30T08:19:18.728Z,95210.03
2023-11-30T08:21:45.674Z,95206.91
2023-11-30T08:24:13.243Z,95208.19
2023-11-30T08:26:42.671Z,95200.97
2023-11-30T08:29:10.218Z,95208.34
2023-11-30T08:31:37.260Z,95205.44
2023-11-30T08:34:05.267Z,95217.47
2023-11-30T08:36:32.896Z,95201.06
2023-11-30T08:39:00.315Z,95200.66
2023-11-30T08:41:28.104Z,95203.59
2023-11-30T08:43:57.482Z,95204.75
2023-11-30T08:46:24.380Z,95205.63
2023-11-30T08:48:52.131Z,95197.44
2023-11-30T08:51:19.910Z,95194.69
2023-11-30T08:53:48.146Z,95193.84
2023-11-30T08:56:16.413Z,95198.94
2023-11-30T08:58:44.442Z,95207.44
2023-11-30T09:01:13.914Z,95186.59
2023-11-30T09:03:42.570Z,95181.88
2023-11-30T09:06:10.847Z,95192.44
2023-11-30T09:08:38.611Z,95193.72
2023-11-30T09:11:07.082Z,95208.97
2023-11-30T09:13:34.516Z,95206.94
2023-11-30T09:16:01.482Z,95206.09
2023-11-30T09:18:30.567Z,95206.53
2023-11-30T09:20:58.231Z,95226.78
2023-11-30T09:23:28.844Z,95218.78
2023-11-30T09:25:56.600Z,95218.72
2023-11-30T09:28:24.126Z,95220.00
2023-11-30T09:30:51.115Z,95228.09
2023-11-30T09:33:18.608Z,95225.97
2023-11-30T09:35:47.115Z,95228.63
2023-11-30T09:38:15.037Z,95232.38
2023-11-30T09:40:42.721Z,95237.19
2023-11-30T09:43:11.590Z,95235.81
2023-11-30T09:45:39.623Z,95239.25
2023-11-30T09:48:07.640Z,95235.88
2023-11-30T09:50:35.313Z,95239.44
2023-11-30T09:53:04.714Z,95236.63
2023-11-30T09:55:31.984Z,95240.56
2023-11-30T09:58:00.242Z,95240.56
2023-11-30T10:00:28.172Z,95239.69
2023-11-30T10:02:58.132Z,95238.47
2023-11-30T10:05:26.484Z,95234.63
2023-11-30T10:07:53.780Z,95235.03
2023-11-30T10:10:23.306Z,95233.66
2023-11-30T10:12:50.982Z,95231.72
2023-11-30T10:15:18.591Z,95238.53
2023-11-30T10:17:46.528Z,95234.56
2023-11-30T10:20:14.383Z,95220.44
2023-11-30T10:22:42.088Z,95224.81
2023-11-30T10:25:09.819Z,95224.88
2023-11-30T10:27:39.377Z,95224.63
2023-11-30T10:30:08.990Z,95231.38
2023-11-30T10:32:36.829Z,95234.63
2023-11-30T10:35:05.641Z,95225.66
2023-11-30T10:37:34.310Z,95220.38
2023-11-30T10:40:02.468Z,95218.66
2023-11-30T10:42:30.216Z,95211.75
2023-11-30T10:45:00.519Z,95212.13
2023-11-30T10:47:28.416Z,95216.25
2023-11-30T10:49:56.109Z,95207.00
2023-11-30T10:52:23.731Z,95203.06
2023-11-30T10:54:54.228Z,95200.44
2023-11-30T10:57:22.503Z,95201.09
2023-11-30T10:59:56.600Z,95190.00
2023-11-30T11:02:26.332Z,95194.00
2023-11-30T11:04:54.455Z,95195.09
2023-11-30T11:07:22.087Z,95194.59
2023-11-30T11:09:52.613Z,95195.16
2023-11-30T11:12:21.404Z,95196.44
2023-11-30T11:14:49.064Z,95187.91
2023-11-30T11:17:17.061Z,95187.91
2023-11-30T11:19:46.780Z,95196.34
2023-11-30T11:22:15.453Z,95193.75
2023-11-30T11:24:42.894Z,95190.44
2023-11-30T11:27:13.602Z,95188.16
2023-11-30T11:29:44.949Z,95180.47
2023-11-30T11:32:13.060Z,95179.97
2023-11-30T11:34:39.897Z,95178.91
2023-11-30T11:37:09.112Z,95168.13
2023-11-30T11:39:36.400Z,95170.44
2023-11-30T11:42:06.780Z,95164.88
2023-11-30T11:44:36.168Z,95168.22
2023-11-30T11:47:06.280Z,95155.28
2023-11-30T11:49:33.445Z,95163.03
2023-11-30T11:52:00.935Z,95157.72
2023-11-30T11:54:30.240Z,95161.88
2023-11-30T11:56:58.373Z,95168.19
2023-11-30T11:59:25.898Z,95166.28
2023-11-30T12:01:57.010Z,95169.28
2023-11-30T12:04:30.957Z,95173.28
2023-11-30T12:06:58.290Z,95172.53
2023-11-30T12:09:25.901Z,95167.97
2023-11-30T12:11:56.090Z,95168.78
2023-11-30T12:14:23.534Z,95171.53
2023-11-30T12:16:51.201Z,95167.88
2023-11-30T12:19:20.611Z,95152.28
2023-11-30T12:21:48.413Z,95162.59
2023-11-30T12:24:16.284Z,95154.94
2023-11-30T12:26:43.941Z,95153.13
2023-11-30T12:29:12.621Z,95154.19
2023-11-30T12:31:39.876Z,95158.69
2023-11-30T12:34:07.529Z,95155.84
2023-11-30T12:36:35.273Z,95159.38
2023-11-30T12:39:02.983Z,95161.13
2023-11-30T12:41:30.608Z,95162.47
2023-11-30T12:43:57.664Z,95162.38
2023-11-30T12:46:27.006Z,95159.44
2023-11-30T12:48:54.717Z,95169.28
2023-11-30T12:51:22.249Z,95160.31
2023-11-30T12:53:49.202Z,95156.94
2023-11-30T12:56:16.543Z,95150.06
2023-11-30T12:58:44.287Z,95158.59
2023-11-30T13:01:11.913Z,95152.50
2023-11-30T13:03:42.104Z,95148.00
2023-11-30T13:06:10.753Z,95143.31
2023-11-30T13:08:38.342Z,95138.75
2023-11-30T13:11:05.925Z,95133.81
2023-11-30T13:13:41.938Z,95126.66
2023-11-30T13:16:12.590Z,95130.94
2023-11-30T13:18:41.797Z,95130.13
2023-11-30T13:21:09.960Z,95142.03
2023-11-30T13:23:37.584Z,95131.72
2023-11-30T13:26:05.668Z,95130.94
2023-11-30T13:28:37.956Z,95131.25
2023-11-30T13:31:10.322Z,95122.50
2023-11-30T13:33:38.224Z,95115.59
2023-11-30T13:36:08.742Z,95118.28
2023-11-30T13:38:37.361Z,95122.22
2023-11-30T13:41:05.238Z,95117.69
2023-11-30T13:43:32.869Z,95129.31
2023-11-30T13:46:00.449Z,95133.31
2023-11-30T13:48:28.248Z,95133.84
2023-11-30T13:51:00.109Z,95142.53
2023-11-30T13:53:31.070Z,95148.09
2023-11-30T13:55:59.441Z,95139.31
2023-11-30T13:58:27.370Z,95135.41
2023-11-30T14:00:55.300Z,95139.94
2023-11-30T14:03:24.558Z,95141.53
2023-11-30T14:05:52.376Z,95142.75
2023-11-30T14:08:20.256Z,95141.66
2023-11-30T14:10:48.708Z,95152.00
2023-11-30T14:13:19.016Z,95152.84
2023-11-30T14:15:46.539Z,95151.28
2023-11-30T14:18:14.506Z,95140.19
2023-11-30T14:20:41.676Z,95147.09
2023-11-30T14:23:10.043Z,95154.81
2023-11-30T14:25:37.917Z,95139.78
2023-11-30T14:28:11.466Z,95150.13
2023-11-30T14:30:40.601Z,95149.91
2023-11-30T14:33:10.542Z,95146.47
2023-11-30T14:35:40.044Z,95147.25
2023-11-30T14:38:10.429Z,95145.66
2023-11-30T14:40:38.639Z,95146.44
2023-11-30T14:43:06.714Z,95151.09
2023-11-30T14:45:33.447Z,95141.56
2023-11-30T14:48:00.243Z,95153.72
2023-11-30T14:50:27.056Z,95153.19
2023-11-30T14:52:53.932Z,95151.59
2023-11-30T14:55:20.926Z,95154.78
2023-11-30T14:57:47.949Z,95148.69
2023-11-30T15:00:18.937Z,95151.34
2023-11-30T15:02:46.030Z,95159.88
2023-11-30T15:05:12.771Z,95163.59
2023-11-30T15:07:39.555Z,95155.22
2023-11-30T15:10:06.936Z,95164.50
2023-11-30T15:12:33.749Z,95167.94
2023-11-30T15:15:00.473Z,95167.28
2023-11-30T15:17:28.649Z,95167.50
2023-11-30T15:19:55.372Z,95168.31
2023-11-30T15:22:22.240Z,95172.06
2023-11-30T15:24:48.967Z,95176.59
2023-11-30T15:27:15.761Z,95173.09
2023-11-30T15:29:42.535Z,95172.53
2023-11-30T15:32:09.278Z,95173.19
2023-11-30T15:34:37.521Z,95171.91
2023-11-30T15:37:04.509Z,95165.59
2023-11-30T15:39:31.488Z,95169.03
2023-11-30T15:41:58.295Z,95164.03
2023-11-30T15:44:25.088Z,95168.28
2023-11-30T15:46:51.835Z,95165.72
2023-11-30T15:49:18.557Z,95162.00
2023-11-30T15:51:46.769Z,95163.34
2023-11-30T15:54:13.625Z,95160.97
2023-11-30T15:56:40.432Z,95154.34
2023-11-30T15:59:07.132Z,95165.75
2023-11-30T16:01:34.008Z,95156.75
2023-11-30T16:04:00.957Z,95164.72
2023-11-30T16:06:27.781Z,95162.63
2023-11-30T16:08:55.929Z,95151.22
2023-11-30T16:11:22.644Z,95157.88
2023-11-30T16:13:49.374Z,95158.84
2023-11-30T16:16:16.176Z,95155.28
2023-11-30T16:18:42.947Z,95146.84
2023-11-30T16:21:14.298Z,95151.59
2023-11-30T16:23:41.083Z,95152.44
2023-11-30T16:26:09.271Z,95145.22
2023-11-30T16:28:36.042Z,95152.28
2023-11-30T16:31:02.801Z,95155.72
2023-11-30T16:33:29.765Z,95153.91
2023-11-30T16:35:56.620Z,95155.75
2023-11-30T16:38:23.353Z,95161.91
2023-11-30T16:40:50.037Z,95162.25
2023-11-30T16:43:18.170Z,95164.91
2023-11-30T16:45:44.890Z,95168.06
2023-11-30T16:48:11.773Z,95169.63
2023-11-30T16:50:38.465Z,95158.28
2023-11-30T16:53:05.200Z,95159.63
2023-11-30T16:55:31.851Z,95159.88
2023-11-30T16:57:58.612Z,95167.88
2023-11-30T17:00:26.735Z,95162.50
2023-11-30T17:02:53.508Z,95170.22
2023-11-30T17:05:20.391Z,95162.03
2023-11-30T17:07:47.239Z,95155.47
2023-11-30T17:10:14.108Z,95178.03
2023-11-30T17:12:40.869Z,95165.84
2023-11-30T17:15:08.542Z,95166.84
2023-11-30T17:17:36.660Z,95164.22
2023-11-30T17:20:03.651Z,95151.50
2023-11-30T17:22:30.447Z,95144.88
2023-11-30T17:24:57.168Z,95140.66
2023-11-30T17:27:23.977Z,95123.47
2023-11-30T17:29:50.734Z,95120.84
2023-11-30T17:32:17.454Z,95123.25
2023-11-30T17:34:45.674Z,95118.47
2023-11-30T17:37:12.503Z,95118.19
2023-11-30T17:39:41.787Z,95108.41
2023-11-30T17:42:08.541Z,95101.25
2023-11-30T17:44:35.269Z,95098.06
2023-11-30T17:47:01.991Z,95110.03
2023-11-30T17:49:28.657Z,95114.28
2023-11-30T17:51:56.709Z,95116.94
2023-11-30T17:54:23.473Z,95118.06
2023-11-30T17:56:50.199Z,95126.28
2023-11-30T17:59:16.913Z,95141.16
2023-11-30T18:01:43.734Z,95149.94
2023-11-30T18:04:10.444Z,95157.91
2023-11-30T18:06:37.235Z,95160.31
2023-11-30T18:09:05.300Z,95161.38
2023-11-30T18:11:32.030Z,95161.09
2023-11-30T18:13:58.820Z,95166.41
2023-11-30T18:16:25.555Z,95163.47
2023-11-30T18:18:52.259Z,95163.22
2023-11-30T18:21:18.993Z,95156.59
2023-11-30T18:23:45.744Z,95162.41
2023-11-30T18:26:13.760Z,95163.22
2023-11-30T18:28:40.477Z,95161.63
2023-11-30T18:31:16.407Z,95159.50
2023-11-30T18:33:47.486Z,95163.75
2023-11-30T18:36:14.148Z,95149.94
2023-11-30T18:38:49.920Z,95153.66
2023-11-30T18:41:19.670Z,95157.41
2023-11-30T18:43:46.429Z,95161.63
2023-11-30T18:46:13.276Z,95152.31
2023-11-30T18:48:40.014Z,95154.97
2023-11-30T18:51:07.439Z,95150.72
2023-11-30T18:53:34.148Z,95158.97
2023-11-30T18:56:00.891Z,95155.53
2023-11-30T18:58:28.910Z,95147.00
2023-11-30T19:00:55.758Z,95151.00
2023-11-30T19:03:22.617Z,95146.22
2023-11-30T19:05:49.379Z,95145.69
2023-11-30T19:08:16.085Z,95147.53
2023-11-30T19:10:42.811Z,95152.56
2023-11-30T19:13:09.550Z,95161.88
2023-11-30T19:15:37.723Z,95148.88
2023-11-30T19:18:04.953Z,95156.31
2023-11-30T19:20:31.747Z,95148.06
2023-11-30T19:22:58.567Z,95160.56
2023-11-30T19:25:25.255Z,95163.22
2023-11-30T19:27:51.966Z,95154.97
2023-11-30T19:30:18.802Z,95154.16
2023-11-30T19:32:46.843Z,95154.97
2023-11-30T19:35:13.570Z,95143.25
2023-11-30T19:37:40.337Z,95136.88
2023-11-30T19:40:08.591Z,95125.97
2023-11-30T19:42:35.819Z,95121.94
2023-11-30T19:45:02.708Z,95127.81
2023-11-30T19:47:29.482Z,95126.50
2023-11-30T19:49:57.622Z,95131.25
2023-11-30T19:52:24.348Z,95121.38
2023-11-30T19:54:53.902Z,95129.38
2023-11-30T19:57:23.544Z,95119.28
2023-11-30T19:59:50.298Z,95127.78
2023-11-30T20:02:17.048Z,95120.06
2023-11-30T20:04:43.807Z,95128.84
2023-11-30T20:07:11.825Z,95123.00
2023-11-30T20:09:39.266Z,95120.06
2023-11-30T20:12:06.873Z,95126.19
2023-11-30T20:14:33.623Z,95126.75
2023-11-30T20:17:00.323Z,95120.34
2023-11-30T20:19:27.209Z,95117.41
2023-11-30T20:21:53.987Z,95118.69
2023-11-30T20:24:22.118Z,95109.34
2023-11-30T20:26:49.824Z,95114.13
2023-11-30T20:29:16.662Z,95114.19
2023-11-30T20:31:43.416Z,95115.78
2023-11-30T20:34:10.233Z,95128.25
2023-11-30T20:36:36.993Z,95129.09
2023-11-30T20:39:04.021Z,95113.41
2023-11-30T20:41:32.048Z,95111.22
2023-11-30T20:43:58.853Z,95111.78
2023-11-30T20:46:25.671Z,95115.75
2023-11-30T20:48:52.748Z,95120.25
2023-11-30T20:51:19.590Z,95123.44
2023-11-30T20:53:46.505Z,95126.88
2023-11-30T20:56:13.186Z,95128.97
2023-11-30T20:58:41.426Z,95126.06
2023-11-30T21:01:08.821Z,95125.81
2023-11-30T21:03:36.296Z,95123.13
2023-11-30T21:06:03.507Z,95120.97
2023-11-30T21:08:30.332Z,95114.56
2023-11-30T21:10:56.999Z,95118.91
2023-11-30T21:13:23.745Z,95111.41
2023-11-30T21:15:51.887Z,95119.66
2023-11-30T21:18:18.783Z,95113.25
2023-11-30T21:20:45.640Z,95107.97
2023-11-30T21:23:12.777Z,95110.91
2023-11-30T21:25:42.320Z,95109.31
2023-11-30T21:28:09.142Z,95104.78
2023-11-30T21:30:36.311Z,95104.44
2023-11-30T21:33:04.683Z,95106.88
2023-11-30T21:35:31.593Z,95104.22
2023-11-30T21:37:58.401Z,95109.81
2023-11-30T21:40:25.115Z,95107.97
2023-11-30T21:42:51.884Z,95113.84
2023-11-30T21:45:18.566Z,95110.91
2023-11-30T21:47:45.379Z,95106.88
2023-11-30T21:50:16.785Z,95115.41
2023-11-30T21:52:43.571Z,95111.91
2023-11-30T21:55:10.313Z,95117.16
2023-11-30T21:57:37.095Z,95117.41
2023-11-30T22:00:04.669Z,95116.47
2023-11-30T22:02:36.282Z,95123.44
2023-11-30T22:05:03.263Z,95117.88
2023-11-30T22:07:31.318Z,95124.00
2023-11-30T22:09:58.101Z,95124.03
2023-11-30T22:12:24.973Z,95125.13
2023-11-30T22:14:51.719Z,95121.94
2023-11-30T22:17:18.469Z,95118.75
2023-11-30T22:19:45.547Z,95117.69
2023-11-30T22:22:12.214Z,95110.00
2023-11-30T22:24:40.315Z,95113.19
2023-11-30T22:27:07.142Z,95109.47
2023-11-30T22:29:33.865Z,95106.56
2023-11-30T22:32:00.553Z,95107.88
2023-11-30T22:34:27.372Z,95115.31
2023-11-30T22:36:54.193Z,95115.88
2023-11-30T22:39:20.923Z,95127.06
2023-11-30T22:41:48.984Z,95122.00
2023-11-30T22:44:15.993Z,95137.44
2023-11-30T22:46:42.680Z,95127.34
2023-11-30T22:49:09.493Z,95119.59
2023-11-30T22:51:40.222Z,95125.19
2023-11-30T22:54:07.015Z,95123.34
2023-11-30T22:56:33.717Z,95122.00
2023-11-30T22:59:01.785Z,95121.22
2023-11-30T23:01:28.786Z,95118.81
2023-11-30T23:03:55.784Z,95098.63
2023-11-30T23:06:22.776Z,95103.13
2023-11-30T23:08:49.500Z,95098.88
2023-11-30T23:11:16.204Z,95104.19
2023-11-30T23:13:42.912Z,95097.56
2023-11-30T23:16:11.555Z,95087.47
2023-11-30T23:18:38.337Z,95095.19
2023-11-30T23:21:05.998Z,95104.47
2023-11-30T23:23:32.718Z,95095.97
2023-11-30T23:25:59.413Z,95098.91
2023-11-30T23:28:26.180Z,95107.13
2023-11-30T23:30:52.978Z,95107.13
2023-11-30T23:33:21.050Z,95102.34
2023-11-30T23:35:47.823Z,95098.63
2023-11-30T23:38:14.525Z,95099.44
2023-11-30T23:40:41.318Z,95104.50
2023-11-30T23:43:08.140Z,95096.00
2023-11-30T23:45:34.945Z,95089.06
2023-11-30T23:48:01.709Z,95092.53
2023-11-30T23:50:29.724Z,95095.19
2023-11-30T23:52:56.455Z,95096.00
2023-11-30T23:55:23.140Z,95105.81
2023-11-30T23:57:49.857Z,95107.16
